Virtual Norwegian is not affiliated with Norwegian Air Shuttle in any way.
If you are looking for the real "Norwegian", or you wish to book Norwegian flights, please visit Norwegian.com


We use cookies to ensure you get the best experience on our website.   ACCEPT

EKYT - AAL - Aalborg (Aalborg)

General Info Alternate Airport
ICAO: EKYT Elevation: 10 ft ICAO: EKCH
IATA: AAL Country: Denmark IATA: CPH
City: Aalborg Charts: Log in to view charts City: Copenhagen
Name: Aalborg Hub: No Name Kastrup
General Info
ICAO: EKYT
IATA: AAL
City: Aalborg
Name: Aalborg
Elevation: 10 ft
Country: Denmark
Charts: Log in to view charts
Hub: No
 
Alternate Airport
ICAO: EKCH
IATA: CPH
City: Copenhagen
Name: Kastrup

Weather
290850Z AUTO 28009KT 9999NDV FEW012/// SCT015/// BKN018/// OVC024/// 06/05 Q1014
Weather
290850Z AUTO 28009KT 9999NDV FEW012/// SCT015/// BKN018/// OVC024/// 06/05 Q1014

Runway Info
08L
Length ILS/LOC Course
2654 m 109.90 082
08R
Length ILS/LOC Heading
2549 m N/A 084
26L
Length ILS/LOC Heading
2549 m N/A 264
26R
Length ILS/LOC Course
2654 m 109.90 262

NOTAMs
NOTAMs currently unavailable.
NOTAMs
NOTAMs currently unavailable

Route map
Airport
Airport (hub)